sensor_id;sensor_type;location;lat;lon;timestamp;temperature;humidity
6164;DHT22;3114;48.362;10.994;2022-09-27T00:01:42;12.60;99.90
6164;DHT22;3114;48.362;10.994;2022-09-27T00:04:15;12.50;99.90
6164;DHT22;3114;48.362;10.994;2022-09-27T00:06:53;12.50;99.90
6164;DHT22;3114;48.362;10.994;2022-09-27T00:12:07;12.50;99.90
6164;DHT22;3114;48.362;10.994;2022-09-27T00:14:35;12.60;99.90
6164;DHT22;3114;48.362;10.994;2022-09-27T00:17:12;12.60;99.90
6164;DHT22;3114;48.362;10.994;2022-09-27T00:19:39;12.60;99.90
6164;DHT22;3114;48.362;10.994;2022-09-27T00:22:07;12.60;99.90
6164;DHT22;3114;48.362;10.994;2022-09-27T00:24:37;12.60;99.90
6164;DHT22;3114;48.362;10.994;2022-09-27T00:27:04;12.50;99.90
6164;DHT22;3114;48.362;10.994;2022-09-27T00:29:46;12.40;99.90
6164;DHT22;3114;48.362;10.994;2022-09-27T00:32:15;12.50;99.90
6164;DHT22;3114;48.362;10.994;2022-09-27T00:37:49;12.40;99.90
6164;DHT22;3114;48.362;10.994;2022-09-27T00:40:16;12.30;99.90
6164;DHT22;3114;48.362;10.994;2022-09-27T00:42:57;12.20;99.90
6164;DHT22;3114;48.362;10.994;2022-09-27T00:45:38;12.10;99.90
6164;DHT22;3114;48.362;10.994;2022-09-27T00:48:06;12.20;99.90
6164;DHT22;3114;48.362;10.994;2022-09-27T00:50:45;12.10;99.90
6164;DHT22;3114;48.362;10.994;2022-09-27T00:56:15;12.20;99.90
6164;DHT22;3114;48.362;10.994;2022-09-27T00:58:46;12.20;99.90
6164;DHT22;3114;48.362;10.994;2022-09-27T01:01:17;12.30;99.90
6164;DHT22;3114;48.362;10.994;2022-09-27T01:04:04;12.20;99.90
6164;DHT22;3114;48.362;10.994;2022-09-27T01:06:42;12.10;99.90
6164;DHT22;3114;48.362;10.994;2022-09-27T01:09:10;12.20;99.90
6164;DHT22;3114;48.362;10.994;2022-09-27T01:11:41;12.20;99.90
6164;DHT22;3114;48.362;10.994;2022-09-27T01:14:31;12.00;99.90
6164;DHT22;3114;48.362;10.994;2022-09-27T01:17:17;12.20;99.90
6164;DHT22;3114;48.362;10.994;2022-09-27T01:26:51;12.00;99.90
6164;DHT22;3114;48.362;10.994;2022-09-27T01:29:29;11.50;99.90
6164;DHT22;3114;48.362;10.994;2022-09-27T01:32:06;11.50;99.90
6164;DHT22;3114;48.362;10.994;2022-09-27T01:35:01;11.40;99.90
6164;DHT22;3114;48.362;10.994;2022-09-27T01:37:37;11.40;99.90
6164;DHT22;3114;48.362;10.994;2022-09-27T01:40:15;11.20;99.90
6164;DHT22;3114;48.362;10.994;2022-09-27T01:42:48;11.30;99.90
6164;DHT22;3114;48.362;10.994;2022-09-27T01:45:20;11.20;99.90
6164;DHT22;3114;48.362;10.994;2022-09-27T01:47:52;11.20;99.90
6164;DHT22;3114;48.362;10.994;2022-09-27T01:50:25;11.30;99.90
6164;DHT22;3114;48.362;10.994;2022-09-27T01:53:01;11.20;99.90
6164;DHT22;3114;48.362;10.994;2022-09-27T01:55:50;11.20;99.90
6164;DHT22;3114;48.362;10.994;2022-09-27T02:01:13;11.10;99.90
6164;DHT22;3114;48.362;10.994;2022-09-27T02:03:51;11.10;99.90
6164;DHT22;3114;48.362;10.994;2022-09-27T02:06:24;11.10;99.90
6164;DHT22;3114;48.362;10.994;2022-09-27T02:08:58;11.10;99.90
6164;DHT22;3114;48.362;10.994;2022-09-27T02:11:47;11.10;99.90
6164;DHT22;3114;48.362;10.994;2022-09-27T02:14:18;11.10;99.90
6164;DHT22;3114;48.362;10.994;2022-09-27T02:16:49;11.10;99.90
6164;DHT22;3114;48.362;10.994;2022-09-27T02:19:26;11.10;99.90
6164;DHT22;3114;48.362;10.994;2022-09-27T02:22:00;11.10;99.90
6164;DHT22;3114;48.362;10.994;2022-09-27T02:24:36;10.90;99.90
6164;DHT22;3114;48.362;10.994;2022-09-27T02:27:11;11.00;99.90
6164;DHT22;3114;48.362;10.994;2022-09-27T02:29:42;11.10;99.90
6164;DHT22;3114;48.362;10.994;2022-09-27T02:32:11;10.90;99.90
6164;DHT22;3114;48.362;10.994;2022-09-27T02:34:40;10.90;99.90
6164;DHT22;3114;48.362;10.994;2022-09-27T02:37:09;10.90;99.90
6164;DHT22;3114;48.362;10.994;2022-09-27T02:39:41;11.00;99.90
6164;DHT22;3114;48.362;10.994;2022-09-27T02:42:29;11.00;99.90
6164;DHT22;3114;48.362;10.994;2022-09-27T02:44:57;10.90;99.90
6164;DHT22;3114;48.362;10.994;2022-09-27T02:47:36;10.90;99.90
6164;DHT22;3114;48.362;10.994;2022-09-27T02:50:21;10.80;99.90
6164;DHT22;3114;48.362;10.994;2022-09-27T02:53:13;10.70;99.90
6164;DHT22;3114;48.362;10.994;2022-09-27T02:55:50;10.70;99.90
6164;DHT22;3114;48.362;10.994;2022-09-27T02:58:26;10.70;99.90
6164;DHT22;3114;48.362;10.994;2022-09-27T03:01:03;10.70;99.90
6164;DHT22;3114;48.362;10.994;2022-09-27T03:03:36;10.70;99.90
6164;DHT22;3114;48.362;10.994;2022-09-27T03:06:09;10.80;99.90
6164;DHT22;3114;48.362;10.994;2022-09-27T03:08:37;10.80;99.90
6164;DHT22;3114;48.362;10.994;2022-09-27T03:11:05;10.80;99.90
6164;DHT22;3114;48.362;10.994;2022-09-27T03:13:57;10.80;99.90
6164;DHT22;3114;48.362;10.994;2022-09-27T03:17:03;10.80;99.90
6164;DHT22;3114;48.362;10.994;2022-09-27T03:19:47;10.80;99.90
6164;DHT22;3114;48.362;10.994;2022-09-27T03:22:16;10.80;99.90
6164;DHT22;3114;48.362;10.994;2022-09-27T03:24:43;10.80;99.90
6164;DHT22;3114;48.362;10.994;2022-09-27T03:27:11;10.90;99.90
6164;DHT22;3114;48.362;10.994;2022-09-27T03:29:44;11.00;99.90
6164;DHT22;3114;48.362;10.994;2022-09-27T03:32:15;11.00;99.90
6164;DHT22;3114;48.362;10.994;2022-09-27T03:34:42;11.00;99.90
6164;DHT22;3114;48.362;10.994;2022-09-27T03:37:11;11.20;99.90
6164;DHT22;3114;48.362;10.994;2022-09-27T03:39:40;11.10;99.90
6164;DHT22;3114;48.362;10.994;2022-09-27T03:42:07;11.00;99.90
6164;DHT22;3114;48.362;10.994;2022-09-27T03:44:34;10.90;99.90
6164;DHT22;3114;48.362;10.994;2022-09-27T03:47:01;10.90;99.90
6164;DHT22;3114;48.362;10.994;2022-09-27T03:49:28;11.00;99.90
6164;DHT22;3114;48.362;10.994;2022-09-27T03:51:57;10.90;99.90
6164;DHT22;3114;48.362;10.994;2022-09-27T03:54:30;10.80;99.90
6164;DHT22;3114;48.362;10.994;2022-09-27T03:57:01;10.80;99.90
6164;DHT22;3114;48.362;10.994;2022-09-27T03:59:29;10.80;99.90
6164;DHT22;3114;48.362;10.994;2022-09-27T04:02:02;10.90;99.90
6164;DHT22;3114;48.362;10.994;2022-09-27T04:04:29;10.80;99.90
6164;DHT22;3114;48.362;10.994;2022-09-27T04:06:57;10.70;99.90
6164;DHT22;3114;48.362;10.994;2022-09-27T04:09:24;10.80;99.90
6164;DHT22;3114;48.362;10.994;2022-09-27T04:11:51;10.70;99.90
6164;DHT22;3114;48.362;10.994;2022-09-27T04:14:21;10.70;99.90
6164;DHT22;3114;48.362;10.994;2022-09-27T04:17:09;10.60;99.90
6164;DHT22;3114;48.362;10.994;2022-09-27T04:19:36;10.60;99.90
6164;DHT22;3114;48.362;10.994;2022-09-27T04:22:09;10.60;99.90
6164;DHT22;3114;48.362;10.994;2022-09-27T04:24:38;10.70;99.90
6164;DHT22;3114;48.362;10.994;2022-09-27T04:27:05;10.70;99.90
6164;DHT22;3114;48.362;10.994;2022-09-27T04:29:34;10.70;99.90
6164;DHT22;3114;48.362;10.994;2022-09-27T04:32:07;10.60;99.90
6164;DHT22;3114;48.362;10.994;2022-09-27T04:34:46;10.70;99.90
6164;DHT22;3114;48.362;10.994;2022-09-27T04:37:30;10.80;99.90
6164;DHT22;3114;48.362;10.994;2022-09-27T04:39:58;10.80;99.90
6164;DHT22;3114;48.362;10.994;2022-09-27T04:42:24;10.70;99.90
6164;DHT22;3114;48.362;10.994;2022-09-27T04:45:03;10.70;99.90
6164;DHT22;3114;48.362;10.994;2022-09-27T04:47:30;10.70;99.90
6164;DHT22;3114;48.362;10.994;2022-09-27T04:49:58;10.70;99.90
6164;DHT22;3114;48.362;10.994;2022-09-27T04:52:25;10.70;99.90
6164;DHT22;3114;48.362;10.994;2022-09-27T04:54:52;10.70;99.90
6164;DHT22;3114;48.362;10.994;2022-09-27T04:57:19;10.50;99.90
6164;DHT22;3114;48.362;10.994;2022-09-27T04:59:46;10.50;99.90
6164;DHT22;3114;48.362;10.994;2022-09-27T05:02:17;10.60;99.90
6164;DHT22;3114;48.362;10.994;2022-09-27T05:04:44;10.60;99.90
6164;DHT22;3114;48.362;10.994;2022-09-27T05:07:11;10.70;99.90
6164;DHT22;3114;48.362;10.994;2022-09-27T05:09:38;10.70;99.90
6164;DHT22;3114;48.362;10.994;2022-09-27T05:12:06;10.60;99.90
6164;DHT22;3114;48.362;10.994;2022-09-27T05:14:36;10.50;99.90
6164;DHT22;3114;48.362;10.994;2022-09-27T05:17:03;10.50;99.90
6164;DHT22;3114;48.362;10.994;2022-09-27T05:19:34;10.50;99.90
6164;DHT22;3114;48.362;10.994;2022-09-27T05:22:03;10.50;99.90
6164;DHT22;3114;48.362;10.994;2022-09-27T05:24:57;10.60;99.90
6164;DHT22;3114;48.362;10.994;2022-09-27T05:27:26;10.60;99.90
6164;DHT22;3114;48.362;10.994;2022-09-27T05:29:55;10.80;99.90
6164;DHT22;3114;48.362;10.994;2022-09-27T05:32:25;10.90;99.90
6164;DHT22;3114;48.362;10.994;2022-09-27T05:34:53;10.90;99.90
6164;DHT22;3114;48.362;10.994;2022-09-27T05:37:21;11.00;99.90
6164;DHT22;3114;48.362;10.994;2022-09-27T05:39:48;10.90;99.90
6164;DHT22;3114;48.362;10.994;2022-09-27T05:42:29;10.90;99.90
6164;DHT22;3114;48.362;10.994;2022-09-27T05:45:12;10.70;99.90
6164;DHT22;3114;48.362;10.994;2022-09-27T05:47:39;10.70;99.90
6164;DHT22;3114;48.362;10.994;2022-09-27T05:50:08;10.90;99.90
6164;DHT22;3114;48.362;10.994;2022-09-27T05:52:35;11.00;99.90
6164;DHT22;3114;48.362;10.994;2022-09-27T05:55:03;11.00;99.90
6164;DHT22;3114;48.362;10.994;2022-09-27T05:57:30;11.00;99.90
6164;DHT22;3114;48.362;10.994;2022-09-27T05:59:59;10.90;99.90
6164;DHT22;3114;48.362;10.994;2022-09-27T06:02:26;10.90;99.90
6164;DHT22;3114;48.362;10.994;2022-09-27T06:04:54;10.90;99.90
6164;DHT22;3114;48.362;10.994;2022-09-27T06:07:23;10.90;99.90
6164;DHT22;3114;48.362;10.994;2022-09-27T06:09:50;10.90;99.90
6164;DHT22;3114;48.362;10.994;2022-09-27T06:12:17;10.90;99.90
6164;DHT22;3114;48.362;10.994;2022-09-27T06:14:45;11.00;99.90
6164;DHT22;3114;48.362;10.994;2022-09-27T06:17:12;11.00;99.90
6164;DHT22;3114;48.362;10.994;2022-09-27T06:19:39;11.00;99.90
6164;DHT22;3114;48.362;10.994;2022-09-27T06:22:06;10.90;99.90
6164;DHT22;3114;48.362;10.994;2022-09-27T06:24:35;10.80;99.90
6164;DHT22;3114;48.362;10.994;2022-09-27T06:27:09;10.80;99.90
6164;DHT22;3114;48.362;10.994;2022-09-27T06:29:37;10.90;99.90
6164;DHT22;3114;48.362;10.994;2022-09-27T06:32:04;10.80;99.90
6164;DHT22;3114;48.362;10.994;2022-09-27T06:34:31;10.80;99.90
6164;DHT22;3114;48.362;10.994;2022-09-27T06:36:58;10.90;99.90
6164;DHT22;3114;48.362;10.994;2022-09-27T06:39:25;10.80;99.90
6164;DHT22;3114;48.362;10.994;2022-09-27T06:41:55;10.80;99.90
6164;DHT22;3114;48.362;10.994;2022-09-27T06:44:23;11.00;99.90
6164;DHT22;3114;48.362;10.994;2022-09-27T06:46:50;11.00;99.90
6164;DHT22;3114;48.362;10.994;2022-09-27T06:49:17;11.10;99.90
6164;DHT22;3114;48.362;10.994;2022-09-27T06:51:45;11.20;99.90
6164;DHT22;3114;48.362;10.994;2022-09-27T06:54:12;11.20;99.90
6164;DHT22;3114;48.362;10.994;2022-09-27T06:56:42;11.40;99.90
6164;DHT22;3114;48.362;10.994;2022-09-27T06:59:12;11.20;99.90
6164;DHT22;3114;48.362;10.994;2022-09-27T07:01:56;11.00;99.90
6164;DHT22;3114;48.362;10.994;2022-09-27T07:04:26;10.90;99.90
6164;DHT22;3114;48.362;10.994;2022-09-27T07:07:02;10.90;99.90
6164;DHT22;3114;48.362;10.994;2022-09-27T07:09:29;11.00;99.90
6164;DHT22;3114;48.362;10.994;2022-09-27T07:11:59;10.80;99.90
6164;DHT22;3114;48.362;10.994;2022-09-27T07:14:31;10.70;99.90
6164;DHT22;3114;48.362;10.994;2022-09-27T07:16:59;10.80;99.90
6164;DHT22;3114;48.362;10.994;2022-09-27T07:19:27;10.80;99.90
6164;DHT22;3114;48.362;10.994;2022-09-27T07:21:54;10.90;99.90
6164;DHT22;3114;48.362;10.994;2022-09-27T07:24:24;10.70;99.90
6164;DHT22;3114;48.362;10.994;2022-09-27T07:27:07;10.60;99.90
6164;DHT22;3114;48.362;10.994;2022-09-27T07:29:45;10.60;99.90
6164;DHT22;3114;48.362;10.994;2022-09-27T07:32:15;10.50;99.90
6164;DHT22;3114;48.362;10.994;2022-09-27T07:34:42;10.20;99.90
6164;DHT22;3114;48.362;10.994;2022-09-27T07:37:09;10.30;99.90
6164;DHT22;3114;48.362;10.994;2022-09-27T07:39:46;10.30;99.90
6164;DHT22;3114;48.362;10.994;2022-09-27T07:42:13;10.30;99.90
6164;DHT22;3114;48.362;10.994;2022-09-27T07:44:42;10.40;99.90
6164;DHT22;3114;48.362;10.994;2022-09-27T07:47:09;10.30;99.90
6164;DHT22;3114;48.362;10.994;2022-09-27T07:49:36;10.10;99.90
6164;DHT22;3114;48.362;10.994;2022-09-27T07:52:04;10.10;99.90
6164;DHT22;3114;48.362;10.994;2022-09-27T07:54:33;10.10;99.90
6164;DHT22;3114;48.362;10.994;2022-09-27T07:57:01;10.20;99.90
6164;DHT22;3114;48.362;10.994;2022-09-27T07:59:31;10.20;99.90
6164;DHT22;3114;48.362;10.994;2022-09-27T08:02:09;10.20;99.90
6164;DHT22;3114;48.362;10.994;2022-09-27T08:04:40;10.20;99.90
6164;DHT22;3114;48.362;10.994;2022-09-27T08:07:13;10.30;99.90
6164;DHT22;3114;48.362;10.994;2022-09-27T08:09:43;10.40;99.90
6164;DHT22;3114;48.362;10.994;2022-09-27T08:12:15;10.30;99.90
6164;DHT22;3114;48.362;10.994;2022-09-27T08:14:42;10.40;99.90
6164;DHT22;3114;48.362;10.994;2022-09-27T08:17:15;10.50;99.90
6164;DHT22;3114;48.362;10.994;2022-09-27T08:19:42;10.40;99.90
6164;DHT22;3114;48.362;10.994;2022-09-27T08:22:16;10.20;99.90
6164;DHT22;3114;48.362;10.994;2022-09-27T08:24:43;10.20;99.90
6164;DHT22;3114;48.362;10.994;2022-09-27T08:27:29;10.20;99.90
6164;DHT22;3114;48.362;10.994;2022-09-27T08:29:57;10.30;99.90
6164;DHT22;3114;48.362;10.994;2022-09-27T08:32:26;10.50;99.90
6164;DHT22;3114;48.362;10.994;2022-09-27T08:35:08;10.50;99.90
6164;DHT22;3114;48.362;10.994;2022-09-27T08:37:38;10.60;99.90
6164;DHT22;3114;48.362;10.994;2022-09-27T08:40:06;10.50;99.90
6164;DHT22;3114;48.362;10.994;2022-09-27T08:42:48;10.60;99.90
6164;DHT22;3114;48.362;10.994;2022-09-27T08:45:23;10.50;99.90
6164;DHT22;3114;48.362;10.994;2022-09-27T08:47:57;10.50;99.90
6164;DHT22;3114;48.362;10.994;2022-09-27T08:50:28;10.40;99.90
6164;DHT22;3114;48.362;10.994;2022-09-27T08:53:03;10.50;99.90
6164;DHT22;3114;48.362;10.994;2022-09-27T08:55:42;10.50;99.90
6164;DHT22;3114;48.362;10.994;2022-09-27T08:58:15;10.50;99.90
6164;DHT22;3114;48.362;10.994;2022-09-27T09:00:45;10.70;99.90
6164;DHT22;3114;48.362;10.994;2022-09-27T09:03:17;10.70;99.90
6164;DHT22;3114;48.362;10.994;2022-09-27T09:05:55;10.70;99.90
6164;DHT22;3114;48.362;10.994;2022-09-27T09:08:34;10.60;99.90
6164;DHT22;3114;48.362;10.994;2022-09-27T09:11:08;10.70;99.90
6164;DHT22;3114;48.362;10.994;2022-09-27T09:14:19;10.90;99.90
6164;DHT22;3114;48.362;10.994;2022-09-27T09:16:54;11.00;99.90
6164;DHT22;3114;48.362;10.994;2022-09-27T09:19:58;11.10;99.90
6164;DHT22;3114;48.362;10.994;2022-09-27T09:22:38;11.10;99.90
6164;DHT22;3114;48.362;10.994;2022-09-27T09:25:22;11.10;99.90
6164;DHT22;3114;48.362;10.994;2022-09-27T09:28:06;10.90;99.90
6164;DHT22;3114;48.362;10.994;2022-09-27T09:30:48;10.90;99.90
6164;DHT22;3114;48.362;10.994;2022-09-27T09:33:22;11.10;99.90
6164;DHT22;3114;48.362;10.994;2022-09-27T09:36:05;11.40;99.90
6164;DHT22;3114;48.362;10.994;2022-09-27T09:38:50;11.50;99.90
6164;DHT22;3114;48.362;10.994;2022-09-27T09:41:33;11.60;99.90
6164;DHT22;3114;48.362;10.994;2022-09-27T09:44:14;11.50;99.90
6164;DHT22;3114;48.362;10.994;2022-09-27T09:46:46;11.60;99.90
6164;DHT22;3114;48.362;10.994;2022-09-27T09:49:21;11.80;99.90
6164;DHT22;3114;48.362;10.994;2022-09-27T09:52:10;12.00;99.90
6164;DHT22;3114;48.362;10.994;2022-09-27T09:54:40;12.00;99.90
6164;DHT22;3114;48.362;10.994;2022-09-27T09:57:13;12.10;99.90
6164;DHT22;3114;48.362;10.994;2022-09-27T09:59:50;12.00;99.90
6164;DHT22;3114;48.362;10.994;2022-09-27T10:02:31;11.50;99.90
6164;DHT22;3114;48.362;10.994;2022-09-27T10:05:02;11.30;99.90
6164;DHT22;3114;48.362;10.994;2022-09-27T10:07:33;11.40;99.90
6164;DHT22;3114;48.362;10.994;2022-09-27T10:10:05;11.30;99.90
6164;DHT22;3114;48.362;10.994;2022-09-27T10:12:34;11.50;99.90
6164;DHT22;3114;48.362;10.994;2022-09-27T10:15:17;11.60;99.90
6164;DHT22;3114;48.362;10.994;2022-09-27T10:17:47;11.60;99.90
6164;DHT22;3114;48.362;10.994;2022-09-27T10:20:26;11.70;99.90
6164;DHT22;3114;48.362;10.994;2022-09-27T10:22:58;11.70;99.90
6164;DHT22;3114;48.362;10.994;2022-09-27T10:25:44;11.70;99.90
6164;DHT22;3114;48.362;10.994;2022-09-27T10:28:29;11.60;99.90
6164;DHT22;3114;48.362;10.994;2022-09-27T10:31:01;11.50;99.90
6164;DHT22;3114;48.362;10.994;2022-09-27T10:33:29;11.40;99.90
6164;DHT22;3114;48.362;10.994;2022-09-27T10:35:58;11.80;99.90
6164;DHT22;3114;48.362;10.994;2022-09-27T10:38:33;12.00;99.90
6164;DHT22;3114;48.362;10.994;2022-09-27T10:41:16;11.90;99.90
6164;DHT22;3114;48.362;10.994;2022-09-27T10:43:43;11.80;99.90
6164;DHT22;3114;48.362;10.994;2022-09-27T10:46:15;11.80;99.90
6164;DHT22;3114;48.362;10.994;2022-09-27T10:49:07;11.90;99.90
6164;DHT22;3114;48.362;10.994;2022-09-27T10:51:40;12.30;99.90
6164;DHT22;3114;48.362;10.994;2022-09-27T10:54:19;12.60;99.90
6164;DHT22;3114;48.362;10.994;2022-09-27T10:56:58;12.60;99.90
6164;DHT22;3114;48.362;10.994;2022-09-27T10:59:39;12.20;99.90
6164;DHT22;3114;48.362;10.994;2022-09-27T11:02:19;12.00;99.90
6164;DHT22;3114;48.362;10.994;2022-09-27T11:08:23;11.50;99.90
6164;DHT22;3114;48.362;10.994;2022-09-27T11:11:19;11.50;99.90
6164;DHT22;3114;48.362;10.994;2022-09-27T11:14:24;11.10;99.90
6164;DHT22;3114;48.362;10.994;2022-09-27T11:17:33;11.70;99.90
6164;DHT22;3114;48.362;10.994;2022-09-27T11:23:15;11.30;99.90
6164;DHT22;3114;48.362;10.994;2022-09-27T11:25:57;11.00;99.90
6164;DHT22;3114;48.362;10.994;2022-09-27T11:28:38;12.10;99.90
6164;DHT22;3114;48.362;10.994;2022-09-27T11:31:15;11.90;99.90
6164;DHT22;3114;48.362;10.994;2022-09-27T11:33:57;12.10;99.90
6164;DHT22;3114;48.362;10.994;2022-09-27T11:36:37;14.00;99.90
6164;DHT22;3114;48.362;10.994;2022-09-27T11:39:15;14.20;99.90
6164;DHT22;3114;48.362;10.994;2022-09-27T11:41:55;14.50;99.90
6164;DHT22;3114;48.362;10.994;2022-09-27T11:44:46;14.10;99.90
6164;DHT22;3114;48.362;10.994;2022-09-27T11:47:19;15.20;99.90
6164;DHT22;3114;48.362;10.994;2022-09-27T11:53:12;20.00;99.90
6164;DHT22;3114;48.362;10.994;2022-09-27T11:55:50;16.40;99.90
6164;DHT22;3114;48.362;10.994;2022-09-27T11:58:43;14.10;99.90
6164;DHT22;3114;48.362;10.994;2022-09-27T12:01:23;14.20;99.90
6164;DHT22;3114;48.362;10.994;2022-09-27T12:04:16;14.40;99.90
6164;DHT22;3114;48.362;10.994;2022-09-27T12:10:27;13.20;99.90
6164;DHT22;3114;48.362;10.994;2022-09-27T12:12:56;16.60;99.90
6164;DHT22;3114;48.362;10.994;2022-09-27T12:15:26;17.60;99.90
6164;DHT22;3114;48.362;10.994;2022-09-27T12:18:11;19.10;99.90
6164;DHT22;3114;48.362;10.994;2022-09-27T12:20:40;17.20;99.90
6164;DHT22;3114;48.362;10.994;2022-09-27T12:23:13;15.20;99.90
6164;DHT22;3114;48.362;10.994;2022-09-27T12:25:44;16.80;99.90
6164;DHT22;3114;48.362;10.994;2022-09-27T12:28:20;18.40;99.90
6164;DHT22;3114;48.362;10.994;2022-09-27T12:30:54;18.70;99.90
6164;DHT22;3114;48.362;10.994;2022-09-27T12:33:29;16.30;99.90
6164;DHT22;3114;48.362;10.994;2022-09-27T12:36:00;16.60;99.90
6164;DHT22;3114;48.362;10.994;2022-09-27T12:38:36;17.80;99.90
6164;DHT22;3114;48.362;10.994;2022-09-27T12:41:08;15.70;99.90
6164;DHT22;3114;48.362;10.994;2022-09-27T12:43:41;14.50;99.90
6164;DHT22;3114;48.362;10.994;2022-09-27T12:46:44;13.50;99.90
6164;DHT22;3114;48.362;10.994;2022-09-27T12:49:18;13.30;99.90
6164;DHT22;3114;48.362;10.994;2022-09-27T12:51:56;13.50;99.90
6164;DHT22;3114;48.362;10.994;2022-09-27T13:01:39;13.40;99.90
6164;DHT22;3114;48.362;10.994;2022-09-27T13:04:23;14.40;99.90
6164;DHT22;3114;48.362;10.994;2022-09-27T13:07:01;16.30;99.90
6164;DHT22;3114;48.362;10.994;2022-09-27T13:09:48;17.30;99.90
6164;DHT22;3114;48.362;10.994;2022-09-27T13:12:21;16.20;99.90
6164;DHT22;3114;48.362;10.994;2022-09-27T13:14:57;18.00;99.90
6164;DHT22;3114;48.362;10.994;2022-09-27T13:17:50;18.30;99.90
6164;DHT22;3114;48.362;10.994;2022-09-27T13:20:39;19.80;99.90
6164;DHT22;3114;48.362;10.994;2022-09-27T13:26:49;18.90;99.90
6164;DHT22;3114;48.362;10.994;2022-09-27T13:36:17;15.60;99.90
6164;DHT22;3114;48.362;10.994;2022-09-27T13:38:56;16.20;99.90
6164;DHT22;3114;48.362;10.994;2022-09-27T13:41:31;17.70;99.90
6164;DHT22;3114;48.362;10.994;2022-09-27T13:44:03;18.70;99.90
6164;DHT22;3114;48.362;10.994;2022-09-27T13:46:45;17.30;99.90
6164;DHT22;3114;48.362;10.994;2022-09-27T13:49:15;15.60;99.90
6164;DHT22;3114;48.362;10.994;2022-09-27T13:51:49;16.40;99.90
6164;DHT22;3114;48.362;10.994;2022-09-27T13:54:52;16.90;99.90
6164;DHT22;3114;48.362;10.994;2022-09-27T13:57:41;16.10;99.90
6164;DHT22;3114;48.362;10.994;2022-09-27T14:00:13;15.60;99.90
6164;DHT22;3114;48.362;10.994;2022-09-27T14:02:58;14.90;99.90
6164;DHT22;3114;48.362;10.994;2022-09-27T14:05:36;14.20;99.90
6164;DHT22;3114;48.362;10.994;2022-09-27T14:08:14;14.00;99.90
6164;DHT22;3114;48.362;10.994;2022-09-27T14:10:55;13.70;99.90
6164;DHT22;3114;48.362;10.994;2022-09-27T14:13:24;13.50;99.90
6164;DHT22;3114;48.362;10.994;2022-09-27T14:16:02;13.30;99.90
6164;DHT22;3114;48.362;10.994;2022-09-27T14:18:48;13.20;99.90
6164;DHT22;3114;48.362;10.994;2022-09-27T14:21:24;13.00;99.90
6164;DHT22;3114;48.362;10.994;2022-09-27T14:23:53;12.60;99.90
6164;DHT22;3114;48.362;10.994;2022-09-27T14:26:37;12.50;99.90
6164;DHT22;3114;48.362;10.994;2022-09-27T14:29:15;12.50;99.90
6164;DHT22;3114;48.362;10.994;2022-09-27T14:31:42;12.50;99.90
6164;DHT22;3114;48.362;10.994;2022-09-27T14:37:18;12.60;99.90
6164;DHT22;3114;48.362;10.994;2022-09-27T14:39:58;12.40;99.90
6164;DHT22;3114;48.362;10.994;2022-09-27T14:42:36;12.30;99.90
6164;DHT22;3114;48.362;10.994;2022-09-27T14:48:28;12.50;99.90
6164;DHT22;3114;48.362;10.994;2022-09-27T14:51:01;12.30;99.90
6164;DHT22;3114;48.362;10.994;2022-09-27T14:53:32;12.40;99.90
6164;DHT22;3114;48.362;10.994;2022-09-27T14:56:02;12.40;99.90
6164;DHT22;3114;48.362;10.994;2022-09-27T14:58:35;12.20;99.90
6164;DHT22;3114;48.362;10.994;2022-09-27T15:01:02;11.80;99.90
6164;DHT22;3114;48.362;10.994;2022-09-27T15:03:31;11.50;99.90
6164;DHT22;3114;48.362;10.994;2022-09-27T15:06:02;11.60;99.90
6164;DHT22;3114;48.362;10.994;2022-09-27T15:08:30;11.50;99.90
6164;DHT22;3114;48.362;10.994;2022-09-27T15:11:00;11.50;99.90
6164;DHT22;3114;48.362;10.994;2022-09-27T15:13:30;11.20;99.90
6164;DHT22;3114;48.362;10.994;2022-09-27T15:15:58;11.20;99.90
6164;DHT22;3114;48.362;10.994;2022-09-27T15:18:32;11.10;99.90
6164;DHT22;3114;48.362;10.994;2022-09-27T15:20:59;10.50;99.90
6164;DHT22;3114;48.362;10.994;2022-09-27T15:23:33;9.90;99.90
6164;DHT22;3114;48.362;10.994;2022-09-27T15:26:07;10.10;99.90
6164;DHT22;3114;48.362;10.994;2022-09-27T15:28:35;10.30;99.90
6164;DHT22;3114;48.362;10.994;2022-09-27T15:31:04;10.30;99.90
6164;DHT22;3114;48.362;10.994;2022-09-27T15:33:32;10.20;99.90
6164;DHT22;3114;48.362;10.994;2022-09-27T15:36:03;10.30;99.90
6164;DHT22;3114;48.362;10.994;2022-09-27T15:38:31;10.30;99.90
6164;DHT22;3114;48.362;10.994;2022-09-27T15:41:11;10.20;99.90
6164;DHT22;3114;48.362;10.994;2022-09-27T15:43:43;10.30;99.90
6164;DHT22;3114;48.362;10.994;2022-09-27T15:46:39;10.50;99.90
6164;DHT22;3114;48.362;10.994;2022-09-27T15:49:27;10.60;99.90
6164;DHT22;3114;48.362;10.994;2022-09-27T15:51:57;10.70;99.90
6164;DHT22;3114;48.362;10.994;2022-09-27T15:54:26;10.60;99.90
6164;DHT22;3114;48.362;10.994;2022-09-27T15:56:59;10.80;99.90
6164;DHT22;3114;48.362;10.994;2022-09-27T15:59:31;10.90;99.90
6164;DHT22;3114;48.362;10.994;2022-09-27T16:02:16;11.00;99.90
6164;DHT22;3114;48.362;10.994;2022-09-27T16:04:45;10.90;99.90
6164;DHT22;3114;48.362;10.994;2022-09-27T16:07:15;10.80;99.90
6164;DHT22;3114;48.362;10.994;2022-09-27T16:09:43;10.80;99.90
6164;DHT22;3114;48.362;10.994;2022-09-27T16:12:12;10.50;99.90
6164;DHT22;3114;48.362;10.994;2022-09-27T16:14:40;10.70;99.90
6164;DHT22;3114;48.362;10.994;2022-09-27T16:17:20;10.60;99.90
6164;DHT22;3114;48.362;10.994;2022-09-27T16:19:50;10.60;99.90
6164;DHT22;3114;48.362;10.994;2022-09-27T16:22:17;10.50;99.90
6164;DHT22;3114;48.362;10.994;2022-09-27T16:24:47;10.30;99.90
6164;DHT22;3114;48.362;10.994;2022-09-27T16:27:23;10.40;99.90
6164;DHT22;3114;48.362;10.994;2022-09-27T16:29:51;10.40;99.90
6164;DHT22;3114;48.362;10.994;2022-09-27T16:32:18;10.30;99.90
6164;DHT22;3114;48.362;10.994;2022-09-27T16:34:49;10.20;99.90
6164;DHT22;3114;48.362;10.994;2022-09-27T16:37:24;10.20;99.90
6164;DHT22;3114;48.362;10.994;2022-09-27T16:39:52;10.20;99.90
6164;DHT22;3114;48.362;10.994;2022-09-27T16:42:26;10.30;99.90
6164;DHT22;3114;48.362;10.994;2022-09-27T16:44:53;10.40;99.90
6164;DHT22;3114;48.362;10.994;2022-09-27T16:47:20;10.40;99.90
6164;DHT22;3114;48.362;10.994;2022-09-27T16:49:47;10.40;99.90
6164;DHT22;3114;48.362;10.994;2022-09-27T16:52:32;10.20;99.90
6164;DHT22;3114;48.362;10.994;2022-09-27T16:55:00;10.10;99.90
6164;DHT22;3114;48.362;10.994;2022-09-27T16:57:28;10.30;99.90
6164;DHT22;3114;48.362;10.994;2022-09-27T16:59:58;10.40;99.90
6164;DHT22;3114;48.362;10.994;2022-09-27T17:02:39;10.20;99.90
6164;DHT22;3114;48.362;10.994;2022-09-27T17:05:13;10.00;99.90
6164;DHT22;3114;48.362;10.994;2022-09-27T17:07:41;10.00;99.90
6164;DHT22;3114;48.362;10.994;2022-09-27T17:10:30;10.00;99.90
6164;DHT22;3114;48.362;10.994;2022-09-27T17:13:24;10.10;99.90
6164;DHT22;3114;48.362;10.994;2022-09-27T17:16:02;9.90;99.90
6164;DHT22;3114;48.362;10.994;2022-09-27T17:18:30;9.90;99.90
6164;DHT22;3114;48.362;10.994;2022-09-27T17:20:59;9.90;99.90
6164;DHT22;3114;48.362;10.994;2022-09-27T17:23:34;9.90;99.90
6164;DHT22;3114;48.362;10.994;2022-09-27T17:26:06;9.90;99.90
6164;DHT22;3114;48.362;10.994;2022-09-27T17:31:55;9.80;99.90